sensor_id;sensor_type;location;lat;lon;timestamp;pressure;altitude;pressure_sealevel;temperature;humidity
33075;BME280;19433;51.292;6.868;2023-06-24T00:01:25;101241.09;;;15.88;100.00
33075;BME280;19433;51.292;6.868;2023-06-24T00:03:51;101240.47;;;15.86;100.00
33075;BME280;19433;51.292;6.868;2023-06-24T00:06:18;101245.81;;;15.88;100.00
33075;BME280;19433;51.292;6.868;2023-06-24T00:08:48;101238.91;;;15.90;100.00
33075;BME280;19433;51.292;6.868;2023-06-24T00:11:13;101260.75;;;16.00;100.00
33075;BME280;19433;51.292;6.868;2023-06-24T00:13:42;101257.78;;;15.95;100.00
33075;BME280;19433;51.292;6.868;2023-06-24T00:16:08;101255.03;;;15.88;100.00
33075;BME280;19433;51.292;6.868;2023-06-24T00:18:35;101249.47;;;15.88;100.00
33075;BME280;19433;51.292;6.868;2023-06-24T00:21:01;101256.06;;;15.94;100.00
33075;BME280;19433;51.292;6.868;2023-06-24T00:23:28;101246.03;;;15.86;100.00
33075;BME280;19433;51.292;6.868;2023-06-24T00:25:54;101247.69;;;15.94;100.00
33075;BME280;19433;51.292;6.868;2023-06-24T00:28:21;101246.47;;;15.83;100.00
33075;BME280;19433;51.292;6.868;2023-06-24T00:30:47;101257.59;;;15.83;100.00
33075;BME280;19433;51.292;6.868;2023-06-24T00:33:13;101241.75;;;15.77;100.00
33075;BME280;19433;51.292;6.868;2023-06-24T00:35:39;101245.19;;;15.79;100.00
33075;BME280;19433;51.292;6.868;2023-06-24T00:38:04;101247.16;;;15.72;100.00
33075;BME280;19433;51.292;6.868;2023-06-24T00:40:30;101244.59;;;15.70;100.00
33075;BME280;19433;51.292;6.868;2023-06-24T00:42:55;101238.78;;;15.72;100.00
33075;BME280;19433;51.292;6.868;2023-06-24T00:45:22;101245.44;;;15.71;100.00
33075;BME280;19433;51.292;6.868;2023-06-24T00:47:47;101249.94;;;15.72;100.00
33075;BME280;19433;51.292;6.868;2023-06-24T00:50:14;101255.03;;;15.81;100.00
33075;BME280;19433;51.292;6.868;2023-06-24T00:52:40;101255.91;;;15.75;100.00
33075;BME280;19433;51.292;6.868;2023-06-24T00:55:09;101250.34;;;15.75;100.00
33075;BME280;19433;51.292;6.868;2023-06-24T00:57:37;101245.19;;;15.79;100.00
33075;BME280;19433;51.292;6.868;2023-06-24T01:00:03;101244.75;;;15.75;100.00
33075;BME280;19433;51.292;6.868;2023-06-24T01:02:33;101242.84;;;15.76;100.00
33075;BME280;19433;51.292;6.868;2023-06-24T01:05:03;101244.16;;;15.73;100.00
33075;BME280;19433;51.292;6.868;2023-06-24T01:07:31;101249.69;;;15.80;100.00
33075;BME280;19433;51.292;6.868;2023-06-24T01:09:57;101244.97;;;15.80;100.00
33075;BME280;19433;51.292;6.868;2023-06-24T01:12:22;101231.28;;;15.72;100.00
33075;BME280;19433;51.292;6.868;2023-06-24T01:14:48;101239.03;;;15.64;100.00
33075;BME280;19433;51.292;6.868;2023-06-24T01:17:16;101245.84;;;15.74;100.00
33075;BME280;19433;51.292;6.868;2023-06-24T01:20:08;101241.38;;;15.73;100.00
33075;BME280;19433;51.292;6.868;2023-06-24T01:27:59;101240.69;;;15.85;100.00
33075;BME280;19433;51.292;6.868;2023-06-24T01:30:54;101233.97;;;15.92;100.00
33075;BME280;19433;51.292;6.868;2023-06-24T01:33:32;101251.53;;;15.99;100.00
33075;BME280;19433;51.292;6.868;2023-06-24T01:36:01;101247.63;;;16.13;100.00
33075;BME280;19433;51.292;6.868;2023-06-24T01:38:36;101255.75;;;16.15;100.00
33075;BME280;19433;51.292;6.868;2023-06-24T01:41:06;101246.78;;;16.06;100.00
33075;BME280;19433;51.292;6.868;2023-06-24T01:43:32;101240.97;;;16.14;100.00
33075;BME280;19433;51.292;6.868;2023-06-24T01:45:58;101231.66;;;16.27;100.00
33075;BME280;19433;51.292;6.868;2023-06-24T01:48:28;101242.09;;;16.38;100.00
33075;BME280;19433;51.292;6.868;2023-06-24T01:53:20;101223.22;;;16.40;100.00
33075;BME280;19433;51.292;6.868;2023-06-24T01:55:46;101222.09;;;16.48;100.00
33075;BME280;19433;51.292;6.868;2023-06-24T01:58:15;101218.63;;;16.52;100.00
33075;BME280;19433;51.292;6.868;2023-06-24T02:00:42;101229.25;;;16.69;98.93
33075;BME280;19433;51.292;6.868;2023-06-24T02:03:08;101229.34;;;16.56;99.13
33075;BME280;19433;51.292;6.868;2023-06-24T02:05:36;101217.97;;;16.50;100.00
33075;BME280;19433;51.292;6.868;2023-06-24T02:08:05;101232.50;;;16.66;99.24
33075;BME280;19433;51.292;6.868;2023-06-24T02:10:32;101219.88;;;16.63;98.41
33075;BME280;19433;51.292;6.868;2023-06-24T02:12:58;101218.72;;;16.71;97.72
33075;BME280;19433;51.292;6.868;2023-06-24T02:15:25;101212.16;;;16.59;97.98
33075;BME280;19433;51.292;6.868;2023-06-24T02:17:52;101229.22;;;16.75;97.56
33075;BME280;19433;51.292;6.868;2023-06-24T02:20:21;101226.06;;;16.65;97.75
33075;BME280;19433;51.292;6.868;2023-06-24T02:22:53;101229.84;;;16.77;97.17
33075;BME280;19433;51.292;6.868;2023-06-24T02:25:19;101225.91;;;16.85;96.31
33075;BME280;19433;51.292;6.868;2023-06-24T02:27:44;101226.09;;;16.90;95.45
33075;BME280;19433;51.292;6.868;2023-06-24T02:30:13;101226.38;;;17.07;93.94
33075;BME280;19433;51.292;6.868;2023-06-24T02:32:39;101222.59;;;17.19;92.57
33075;BME280;19433;51.292;6.868;2023-06-24T02:35:05;101221.16;;;16.92;93.30
33075;BME280;19433;51.292;6.868;2023-06-24T02:37:32;101226.19;;;17.02;93.95
33075;BME280;19433;51.292;6.868;2023-06-24T02:39:58;101230.63;;;16.84;94.91
33075;BME280;19433;51.292;6.868;2023-06-24T02:42:23;101228.44;;;16.93;94.85
33075;BME280;19433;51.292;6.868;2023-06-24T02:44:49;101225.44;;;17.13;93.28
33075;BME280;19433;51.292;6.868;2023-06-24T02:47:16;101208.69;;;17.13;92.32
33075;BME280;19433;51.292;6.868;2023-06-24T02:49:44;101228.41;;;17.18;92.64
33075;BME280;19433;51.292;6.868;2023-06-24T02:52:11;101223.81;;;17.05;93.21
33075;BME280;19433;51.292;6.868;2023-06-24T02:54:37;101215.34;;;17.12;92.51
33075;BME280;19433;51.292;6.868;2023-06-24T02:57:05;101221.34;;;17.15;92.21
33075;BME280;19433;51.292;6.868;2023-06-24T02:59:32;101222.84;;;17.18;91.63
33075;BME280;19433;51.292;6.868;2023-06-24T03:01:57;101217.38;;;17.05;91.96
33075;BME280;19433;51.292;6.868;2023-06-24T03:04:23;101224.59;;;17.12;91.43
33075;BME280;19433;51.292;6.868;2023-06-24T03:06:49;101225.44;;;17.13;91.67
33075;BME280;19433;51.292;6.868;2023-06-24T03:09:16;101239.81;;;17.16;91.53
33075;BME280;19433;51.292;6.868;2023-06-24T03:11:42;101247.47;;;17.03;92.30
33075;BME280;19433;51.292;6.868;2023-06-24T03:14:08;101241.34;;;17.12;91.96
33075;BME280;19433;51.292;6.868;2023-06-24T03:16:33;101246.66;;;17.20;90.98
33075;BME280;19433;51.292;6.868;2023-06-24T03:18:59;101245.25;;;17.30;90.24
33075;BME280;19433;51.292;6.868;2023-06-24T03:21:24;101244.28;;;17.24;89.74
33075;BME280;19433;51.292;6.868;2023-06-24T03:23:53;101249.84;;;17.24;90.39
33075;BME280;19433;51.292;6.868;2023-06-24T03:26:18;101239.06;;;17.28;89.85
33075;BME280;19433;51.292;6.868;2023-06-24T03:28:44;101248.69;;;17.32;89.73
33075;BME280;19433;51.292;6.868;2023-06-24T03:31:09;101233.81;;;17.38;89.01
33075;BME280;19433;51.292;6.868;2023-06-24T03:33:34;101245.91;;;17.32;89.28
33075;BME280;19433;51.292;6.868;2023-06-24T03:35:59;101235.66;;;17.26;90.17
33075;BME280;19433;51.292;6.868;2023-06-24T03:38:25;101232.75;;;17.14;90.87
33075;BME280;19433;51.292;6.868;2023-06-24T03:40:50;101233.72;;;17.26;90.63
33075;BME280;19433;51.292;6.868;2023-06-24T03:43:15;101234.63;;;17.20;90.95
33075;BME280;19433;51.292;6.868;2023-06-24T03:45:41;101247.06;;;17.24;90.88
33075;BME280;19433;51.292;6.868;2023-06-24T03:48:07;101252.09;;;17.34;91.15
33075;BME280;19433;51.292;6.868;2023-06-24T03:50:32;101251.16;;;17.21;91.98
33075;BME280;19433;51.292;6.868;2023-06-24T03:52:57;101253.00;;;17.28;91.70
33075;BME280;19433;51.292;6.868;2023-06-24T03:55:23;101251.03;;;17.35;91.74
33075;BME280;19433;51.292;6.868;2023-06-24T03:57:48;101265.66;;;17.30;92.37
33075;BME280;19433;51.292;6.868;2023-06-24T04:00:13;101265.00;;;17.35;92.32
33075;BME280;19433;51.292;6.868;2023-06-24T04:02:42;101259.69;;;17.27;92.76
33075;BME280;19433;51.292;6.868;2023-06-24T04:05:11;101270.53;;;17.41;92.33
33075;BME280;19433;51.292;6.868;2023-06-24T04:07:36;101272.91;;;17.38;92.70
33075;BME280;19433;51.292;6.868;2023-06-24T04:10:03;101270.03;;;17.26;93.34
33075;BME280;19433;51.292;6.868;2023-06-24T04:12:37;101267.84;;;17.28;93.19
33075;BME280;19433;51.292;6.868;2023-06-24T04:15:03;101281.97;;;17.33;93.72
33075;BME280;19433;51.292;6.868;2023-06-24T04:17:29;101286.06;;;17.31;93.56
33075;BME280;19433;51.292;6.868;2023-06-24T04:19:54;101280.03;;;17.34;93.11
33075;BME280;19433;51.292;6.868;2023-06-24T04:22:20;101276.63;;;17.32;93.94
33075;BME280;19433;51.292;6.868;2023-06-24T04:24:45;101288.47;;;17.52;93.09
33075;BME280;19433;51.292;6.868;2023-06-24T04:27:10;101285.72;;;17.45;93.17
33075;BME280;19433;51.292;6.868;2023-06-24T04:29:36;101286.44;;;17.59;93.09
33075;BME280;19433;51.292;6.868;2023-06-24T04:32:01;101279.13;;;17.65;92.87
33075;BME280;19433;51.292;6.868;2023-06-24T04:34:26;101287.78;;;17.56;92.86
33075;BME280;19433;51.292;6.868;2023-06-24T04:36:52;101280.38;;;17.69;91.90
33075;BME280;19433;51.292;6.868;2023-06-24T04:39:17;101291.63;;;17.80;91.46
33075;BME280;19433;51.292;6.868;2023-06-24T04:41:43;101292.94;;;17.78;91.57
33075;BME280;19433;51.292;6.868;2023-06-24T04:44:08;101295.69;;;17.84;91.01
33075;BME280;19433;51.292;6.868;2023-06-24T04:46:33;101297.69;;;17.77;91.51
33075;BME280;19433;51.292;6.868;2023-06-24T04:48:59;101291.31;;;17.88;91.04
33075;BME280;19433;51.292;6.868;2023-06-24T04:51:25;101296.66;;;17.90;91.00
33075;BME280;19433;51.292;6.868;2023-06-24T04:53:50;101297.69;;;17.96;90.52
33075;BME280;19433;51.292;6.868;2023-06-24T04:56:15;101292.09;;;17.96;90.91
33075;BME280;19433;51.292;6.868;2023-06-24T04:58:41;101276.41;;;17.95;90.58
33075;BME280;19433;51.292;6.868;2023-06-24T05:01:06;101289.00;;;17.85;90.81
33075;BME280;19433;51.292;6.868;2023-06-24T05:03:31;101277.19;;;17.83;91.71
33075;BME280;19433;51.292;6.868;2023-06-24T05:05:57;101292.72;;;17.98;91.43
33075;BME280;19433;51.292;6.868;2023-06-24T05:08:22;101290.63;;;18.11;90.66
33075;BME280;19433;51.292;6.868;2023-06-24T05:10:47;101282.69;;;18.08;91.04
33075;BME280;19433;51.292;6.868;2023-06-24T05:13:13;101284.94;;;18.18;90.66
33075;BME280;19433;51.292;6.868;2023-06-24T05:15:38;101285.66;;;18.13;91.31
33075;BME280;19433;51.292;6.868;2023-06-24T05:18:03;101278.97;;;18.14;91.92
33075;BME280;19433;51.292;6.868;2023-06-24T05:20:28;101280.88;;;18.32;90.31
33075;BME280;19433;51.292;6.868;2023-06-24T05:22:54;101290.25;;;18.38;90.16
33075;BME280;19433;51.292;6.868;2023-06-24T05:25:20;101284.59;;;18.44;90.15
33075;BME280;19433;51.292;6.868;2023-06-24T05:27:45;101277.03;;;18.45;89.89
33075;BME280;19433;51.292;6.868;2023-06-24T05:30:10;101277.91;;;18.45;90.67
33075;BME280;19433;51.292;6.868;2023-06-24T05:32:37;101281.69;;;18.51;90.71
33075;BME280;19433;51.292;6.868;2023-06-24T05:35:03;101291.72;;;18.58;91.18
33075;BME280;19433;51.292;6.868;2023-06-24T05:37:29;101286.88;;;18.66;90.73
33075;BME280;19433;51.292;6.868;2023-06-24T05:39:54;101283.53;;;18.75;90.36
33075;BME280;19433;51.292;6.868;2023-06-24T05:42:20;101291.72;;;18.88;89.73
33075;BME280;19433;51.292;6.868;2023-06-24T05:44:45;101294.66;;;18.93;90.26
33075;BME280;19433;51.292;6.868;2023-06-24T05:47:11;101290.78;;;19.06;90.38
33075;BME280;19433;51.292;6.868;2023-06-24T05:49:36;101294.84;;;19.33;89.50
33075;BME280;19433;51.292;6.868;2023-06-24T05:52:02;101294.88;;;19.69;87.58
33075;BME280;19433;51.292;6.868;2023-06-24T05:54:27;101297.78;;;19.97;85.68
33075;BME280;19433;51.292;6.868;2023-06-24T05:56:52;101296.75;;;20.15;85.94
33075;BME280;19433;51.292;6.868;2023-06-24T05:59:17;101300.38;;;20.27;84.88
33075;BME280;19433;51.292;6.868;2023-06-24T06:01:43;101298.41;;;20.39;84.53
33075;BME280;19433;51.292;6.868;2023-06-24T06:04:09;101288.78;;;20.47;85.03
33075;BME280;19433;51.292;6.868;2023-06-24T06:06:34;101289.81;;;20.57;83.89
33075;BME280;19433;51.292;6.868;2023-06-24T06:09:00;101289.63;;;20.76;83.07
33075;BME280;19433;51.292;6.868;2023-06-24T06:11:25;101301.16;;;21.08;81.67
33075;BME280;19433;51.292;6.868;2023-06-24T06:13:50;101310.91;;;21.33;80.61
33075;BME280;19433;51.292;6.868;2023-06-24T06:16:17;101319.09;;;21.52;80.83
33075;BME280;19433;51.292;6.868;2023-06-24T06:18:45;101318.47;;;21.66;78.87
33075;BME280;19433;51.292;6.868;2023-06-24T06:21:10;101326.97;;;21.71;78.57
33075;BME280;19433;51.292;6.868;2023-06-24T06:23:35;101326.97;;;21.71;79.62
33075;BME280;19433;51.292;6.868;2023-06-24T06:26:01;101314.97;;;21.42;79.69
33075;BME280;19433;51.292;6.868;2023-06-24T06:28:26;101324.97;;;21.33;80.18
33075;BME280;19433;51.292;6.868;2023-06-24T06:30:51;101328.28;;;21.47;79.70
33075;BME280;19433;51.292;6.868;2023-06-24T06:33:17;101319.59;;;21.49;80.01
33075;BME280;19433;51.292;6.868;2023-06-24T06:35:42;101317.88;;;21.64;79.47
33075;BME280;19433;51.292;6.868;2023-06-24T06:38:07;101320.34;;;21.77;78.67
33075;BME280;19433;51.292;6.868;2023-06-24T06:40:33;101317.69;;;21.71;78.26
33075;BME280;19433;51.292;6.868;2023-06-24T06:42:58;101327.75;;;22.22;77.30
33075;BME280;19433;51.292;6.868;2023-06-24T06:45:23;101339.75;;;22.34;76.08
33075;BME280;19433;51.292;6.868;2023-06-24T06:47:49;101341.19;;;22.80;75.62
33075;BME280;19433;51.292;6.868;2023-06-24T06:50:15;101343.59;;;23.21;74.17
33075;BME280;19433;51.292;6.868;2023-06-24T06:52:40;101349.38;;;23.36;71.66
33075;BME280;19433;51.292;6.868;2023-06-24T06:55:06;101347.56;;;23.52;70.80
33075;BME280;19433;51.292;6.868;2023-06-24T06:57:31;101342.59;;;23.64;70.20
33075;BME280;19433;51.292;6.868;2023-06-24T06:59:57;101350.28;;;23.73;71.29
33075;BME280;19433;51.292;6.868;2023-06-24T07:02:22;101354.38;;;23.93;71.76
33075;BME280;19433;51.292;6.868;2023-06-24T07:04:47;101353.13;;;24.73;66.95
33075;BME280;19433;51.292;6.868;2023-06-24T07:07:13;101358.56;;;24.89;65.32
33075;BME280;19433;51.292;6.868;2023-06-24T07:09:39;101360.78;;;24.82;65.35
33075;BME280;19433;51.292;6.868;2023-06-24T07:12:06;101374.78;;;26.31;60.83
33075;BME280;19433;51.292;6.868;2023-06-24T07:14:31;101375.91;;;28.12;54.71
33075;BME280;19433;51.292;6.868;2023-06-24T07:16:56;101386.63;;;29.71;47.90
33075;BME280;19433;51.292;6.868;2023-06-24T07:19:21;101384.31;;;30.93;45.96
33075;BME280;19433;51.292;6.868;2023-06-24T07:21:47;101387.16;;;31.79;41.62
33075;BME280;19433;51.292;6.868;2023-06-24T07:24:12;101388.97;;;31.17;43.29
33075;BME280;19433;51.292;6.868;2023-06-24T07:26:37;101380.03;;;30.68;44.09
33075;BME280;19433;51.292;6.868;2023-06-24T07:29:06;101386.03;;;29.74;45.68
33075;BME280;19433;51.292;6.868;2023-06-24T07:31:31;101384.44;;;30.01;45.10
33075;BME280;19433;51.292;6.868;2023-06-24T07:33:56;101393.44;;;31.45;42.42
33075;BME280;19433;51.292;6.868;2023-06-24T07:36:22;101390.84;;;32.95;38.95
33075;BME280;19433;51.292;6.868;2023-06-24T07:38:47;101400.63;;;34.49;35.72
33075;BME280;19433;51.292;6.868;2023-06-24T07:41:12;101413.66;;;35.85;33.40
33075;BME280;19433;51.292;6.868;2023-06-24T07:43:37;101411.53;;;36.72;31.35
33075;BME280;19433;51.292;6.868;2023-06-24T07:46:04;101410.22;;;37.43;31.00
33075;BME280;19433;51.292;6.868;2023-06-24T07:48:29;101411.03;;;38.39;29.54
33075;BME280;19433;51.292;6.868;2023-06-24T07:50:54;101411.81;;;38.99;28.92
33075;BME280;19433;51.292;6.868;2023-06-24T07:53:20;101429.00;;;39.43;26.19
33075;BME280;19433;51.292;6.868;2023-06-24T07:55:45;101416.63;;;38.32;27.09
33075;BME280;19433;51.292;6.868;2023-06-24T07:58:10;101411.72;;;37.64;26.71
33075;BME280;19433;51.292;6.868;2023-06-24T08:00:36;101408.81;;;36.10;28.99
33075;BME280;19433;51.292;6.868;2023-06-24T08:03:01;101405.69;;;36.81;29.04
33075;BME280;19433;51.292;6.868;2023-06-24T08:05:27;101422.78;;;37.90;27.32
33075;BME280;19433;51.292;6.868;2023-06-24T08:07:52;101415.00;;;37.39;28.11
33075;BME280;19433;51.292;6.868;2023-06-24T08:10:18;101393.34;;;35.19;28.38
33075;BME280;19433;51.292;6.868;2023-06-24T08:12:43;101395.69;;;32.77;31.70
33075;BME280;19433;51.292;6.868;2023-06-24T08:15:12;101399.59;;;32.19;34.02
33075;BME280;19433;51.292;6.868;2023-06-24T08:17:38;101384.41;;;32.19;34.25
33075;BME280;19433;51.292;6.868;2023-06-24T08:20:03;101394.28;;;33.14;34.90
33075;BME280;19433;51.292;6.868;2023-06-24T08:22:29;101398.25;;;34.89;30.55
33075;BME280;19433;51.292;6.868;2023-06-24T08:24:55;101396.72;;;34.91;30.58
33075;BME280;19433;51.292;6.868;2023-06-24T08:27:20;101396.97;;;34.31;31.49
33075;BME280;19433;51.292;6.868;2023-06-24T08:29:46;101388.25;;;33.50;33.03
33075;BME280;19433;51.292;6.868;2023-06-24T08:32:11;101389.44;;;33.40;33.48
33075;BME280;19433;51.292;6.868;2023-06-24T08:34:36;101389.00;;;34.75;30.70
33075;BME280;19433;51.292;6.868;2023-06-24T08:37:02;101390.53;;;36.72;28.90
33075;BME280;19433;51.292;6.868;2023-06-24T08:39:27;101391.44;;;37.89;26.47
33075;BME280;19433;51.292;6.868;2023-06-24T08:41:53;101394.66;;;38.43;24.91
33075;BME280;19433;51.292;6.868;2023-06-24T08:44:18;101402.56;;;39.25;25.16
33075;BME280;19433;51.292;6.868;2023-06-24T08:46:44;101395.81;;;39.71;23.34
33075;BME280;19433;51.292;6.868;2023-06-24T08:49:25;101402.38;;;40.72;23.47
33075;BME280;19433;51.292;6.868;2023-06-24T08:52:12;101403.59;;;41.47;23.30
33075;BME280;19433;51.292;6.868;2023-06-24T08:54:40;101403.53;;;41.99;21.53
33075;BME280;19433;51.292;6.868;2023-06-24T08:57:06;101407.28;;;41.73;22.45
33075;BME280;19433;51.292;6.868;2023-06-24T08:59:36;101407.28;;;41.73;20.48
33075;BME280;19433;51.292;6.868;2023-06-24T09:02:02;101404.03;;;42.08;20.35
33075;BME280;19433;51.292;6.868;2023-06-24T09:04:27;101396.69;;;41.88;21.51
33075;BME280;19433;51.292;6.868;2023-06-24T09:06:53;101406.22;;;41.55;22.41
33075;BME280;19433;51.292;6.868;2023-06-24T09:09:22;101407.53;;;42.62;20.30
33075;BME280;19433;51.292;6.868;2023-06-24T09:11:52;101414.25;;;43.17;20.17
33075;BME280;19433;51.292;6.868;2023-06-24T09:14:18;101409.63;;;42.65;19.11
33075;BME280;19433;51.292;6.868;2023-06-24T09:16:57;101411.75;;;43.15;20.33
33075;BME280;19433;51.292;6.868;2023-06-24T09:19:24;101406.34;;;42.70;19.74
33075;BME280;19433;51.292;6.868;2023-06-24T09:21:50;101395.63;;;42.37;21.05
33075;BME280;19433;51.292;6.868;2023-06-24T09:24:18;101391.50;;;42.38;20.05
33075;BME280;19433;51.292;6.868;2023-06-24T09:26:44;101386.56;;;42.05;19.79
33075;BME280;19433;51.292;6.868;2023-06-24T09:29:13;101384.16;;;41.51;20.94
33075;BME280;19433;51.292;6.868;2023-06-24T09:31:49;101379.56;;;41.76;20.73
33075;BME280;19433;51.292;6.868;2023-06-24T09:34:15;101376.44;;;42.69;20.45
33075;BME280;19433;51.292;6.868;2023-06-24T09:36:44;101377.75;;;42.75;18.92
33075;BME280;19433;51.292;6.868;2023-06-24T09:39:10;101379.19;;;42.92;19.63
33075;BME280;19433;51.292;6.868;2023-06-24T09:41:36;101363.59;;;42.70;20.66
33075;BME280;19433;51.292;6.868;2023-06-24T09:44:02;101374.00;;;43.26;18.99
33075;BME280;19433;51.292;6.868;2023-06-24T09:46:29;101356.97;;;42.73;18.92
33075;BME280;19433;51.292;6.868;2023-06-24T09:48:56;101352.16;;;42.07;20.16
33075;BME280;19433;51.292;6.868;2023-06-24T09:51:22;101355.09;;;41.47;20.94
33075;BME280;19433;51.292;6.868;2023-06-24T09:53:49;101354.19;;;41.39;21.41
33075;BME280;19433;51.292;6.868;2023-06-24T09:56:17;101353.53;;;41.23;21.76
33075;BME280;19433;51.292;6.868;2023-06-24T09:58:44;101347.78;;;41.57;21.72
33075;BME280;19433;51.292;6.868;2023-06-24T10:01:11;101349.41;;;41.88;22.05
33075;BME280;19433;51.292;6.868;2023-06-24T10:03:38;101344.63;;;42.39;19.82
33075;BME280;19433;51.292;6.868;2023-06-24T10:06:05;101354.84;;;42.26;21.76
33075;BME280;19433;51.292;6.868;2023-06-24T10:08:32;101339.41;;;42.19;22.10
33075;BME280;19433;51.292;6.868;2023-06-24T10:10:59;101337.75;;;41.51;21.55
33075;BME280;19433;51.292;6.868;2023-06-24T10:13:25;101331.34;;;42.38;19.30
33075;BME280;19433;51.292;6.868;2023-06-24T10:15:51;101328.47;;;42.42;19.22
33075;BME280;19433;51.292;6.868;2023-06-24T10:20:56;101334.69;;;42.40;18.36
33075;BME280;19433;51.292;6.868;2023-06-24T10:23:30;101330.00;;;42.76;19.51
33075;BME280;19433;51.292;6.868;2023-06-24T10:25:55;101322.22;;;41.99;20.23
33075;BME280;19433;51.292;6.868;2023-06-24T10:28:20;101311.34;;;41.29;22.13
33075;BME280;19433;51.292;6.868;2023-06-24T10:30:55;101308.66;;;40.87;22.57
33075;BME280;19433;51.292;6.868;2023-06-24T10:33:23;101317.91;;;41.86;17.57
33075;BME280;19433;51.292;6.868;2023-06-24T10:35:48;101297.59;;;42.27;17.92
33075;BME280;19433;51.292;6.868;2023-06-24T10:38:15;101313.38;;;42.29;17.55
33075;BME280;19433;51.292;6.868;2023-06-24T10:40:44;101293.16;;;42.40;17.38
33075;BME280;19433;51.292;6.868;2023-06-24T10:43:28;101286.31;;;41.81;16.66
33075;BME280;19433;51.292;6.868;2023-06-24T10:45:56;101294.94;;;41.74;18.43
33075;BME280;19433;51.292;6.868;2023-06-24T10:48:22;101294.28;;;40.71;19.35
33075;BME280;19433;51.292;6.868;2023-06-24T10:50:48;101280.81;;;40.56;20.67
33075;BME280;19433;51.292;6.868;2023-06-24T10:53:16;101276.38;;;41.49;20.71
33075;BME280;19433;51.292;6.868;2023-06-24T10:55:45;101285.00;;;41.75;18.81
33075;BME280;19433;51.292;6.868;2023-06-24T10:58:13;101272.09;;;41.72;18.11
33075;BME280;19433;51.292;6.868;2023-06-24T11:00:39;101278.63;;;41.62;18.75
33075;BME280;19433;51.292;6.868;2023-06-24T11:03:12;101272.38;;;41.60;19.91
33075;BME280;19433;51.292;6.868;2023-06-24T11:05:42;101269.44;;;40.70;20.94
33075;BME280;19433;51.292;6.868;2023-06-24T11:08:08;101257.44;;;39.00;20.22
33075;BME280;19433;51.292;6.868;2023-06-24T11:10:45;101259.38;;;37.82;21.19
33075;BME280;19433;51.292;6.868;2023-06-24T11:13:11;101261.69;;;37.49;19.71
33075;BME280;19433;51.292;6.868;2023-06-24T11:15:38;101255.75;;;37.57;21.40
33075;BME280;19433;51.292;6.868;2023-06-24T11:18:04;101258.03;;;37.36;21.24
33075;BME280;19433;51.292;6.868;2023-06-24T11:20:29;101250.38;;;36.76;21.17
33075;BME280;19433;51.292;6.868;2023-06-24T11:22:55;101251.09;;;36.73;22.31
33075;BME280;19433;51.292;6.868;2023-06-24T11:25:21;101245.44;;;36.03;21.73
33075;BME280;19433;51.292;6.868;2023-06-24T11:27:50;101229.50;;;35.60;23.10
33075;BME280;19433;51.292;6.868;2023-06-24T11:30:17;101230.72;;;35.27;24.16
33075;BME280;19433;51.292;6.868;2023-06-24T11:32:43;101226.63;;;35.60;23.65
33075;BME280;19433;51.292;6.868;2023-06-24T11:35:10;101232.81;;;35.83;24.76
33075;BME280;19433;51.292;6.868;2023-06-24T11:37:36;101238.34;;;35.88;23.78
33075;BME280;19433;51.292;6.868;2023-06-24T11:42:31;101236.84;;;35.70;22.06
33075;BME280;19433;51.292;6.868;2023-06-24T11:45:05;101237.69;;;35.38;21.65
33075;BME280;19433;51.292;6.868;2023-06-24T11:47:31;101221.44;;;35.21;23.53
33075;BME280;19433;51.292;6.868;2023-06-24T11:49:58;101225.34;;;35.16;23.06
33075;BME280;19433;51.292;6.868;2023-06-24T11:55:01;101226.25;;;35.50;23.72
33075;BME280;19433;51.292;6.868;2023-06-24T12:00:43;101204.03;;;34.34;27.05
33075;BME280;19433;51.292;6.868;2023-06-24T12:03:11;101219.28;;;34.76;26.07
33075;BME280;19433;51.292;6.868;2023-06-24T12:05:38;101201.81;;;34.61;25.90
33075;BME280;19433;51.292;6.868;2023-06-24T12:08:06;101212.81;;;35.21;26.45
33075;BME280;19433;51.292;6.868;2023-06-24T12:10:34;101205.63;;;35.48;27.14
33075;BME280;19433;51.292;6.868;2023-06-24T12:13:01;101193.06;;;35.40;25.50
33075;BME280;19433;51.292;6.868;2023-06-24T12:15:28;101209.56;;;35.76;25.15
33075;BME280;19433;51.292;6.868;2023-06-24T12:17:54;101204.38;;;35.04;24.92
33075;BME280;19433;51.292;6.868;2023-06-24T12:20:20;101202.72;;;34.82;27.49
33075;BME280;19433;51.292;6.868;2023-06-24T12:22:47;101195.94;;;35.19;25.77
33075;BME280;19433;51.292;6.868;2023-06-24T12:25:13;101193.75;;;35.37;26.10
33075;BME280;19433;51.292;6.868;2023-06-24T12:27:39;101190.38;;;35.35;24.50
33075;BME280;19433;51.292;6.868;2023-06-24T12:30:06;101197.81;;;35.15;24.05
33075;BME280;19433;51.292;6.868;2023-06-24T12:32:31;101192.09;;;34.74;26.76
33075;BME280;19433;51.292;6.868;2023-06-24T12:34:57;101183.41;;;35.03;28.39
33075;BME280;19433;51.292;6.868;2023-06-24T12:37:22;101185.13;;;35.16;26.09
33075;BME280;19433;51.292;6.868;2023-06-24T12:39:48;101171.22;;;35.06;25.24
33075;BME280;19433;51.292;6.868;2023-06-24T12:42:13;101175.13;;;35.22;25.34
33075;BME280;19433;51.292;6.868;2023-06-24T12:44:38;101180.72;;;35.52;25.28
33075;BME280;19433;51.292;6.868;2023-06-24T12:47:04;101180.47;;;35.45;24.81
33075;BME280;19433;51.292;6.868;2023-06-24T12:49:29;101176.66;;;35.53;26.79
33075;BME280;19433;51.292;6.868;2023-06-24T12:51:54;101185.94;;;35.71;24.91
33075;BME280;19433;51.292;6.868;2023-06-24T12:54:20;101184.31;;;35.49;23.29
33075;BME280;19433;51.292;6.868;2023-06-24T12:56:45;101176.47;;;35.04;25.43
33075;BME280;19433;51.292;6.868;2023-06-24T12:59:10;101155.16;;;35.26;25.15
33075;BME280;19433;51.292;6.868;2023-06-24T13:01:36;101178.66;;;35.07;20.99
33075;BME280;19433;51.292;6.868;2023-06-24T13:04:01;101167.69;;;35.21;23.52